createdAt,value
2022-11-13T00:01:46.468Z,7.60
2022-11-13T00:04:33.972Z,7.30
2022-11-13T00:07:21.477Z,7.20
2022-11-13T00:10:11.141Z,6.90
2022-11-13T00:12:58.451Z,6.80
2022-11-13T00:15:45.657Z,6.60
2022-11-13T00:18:35.852Z,6.50
2022-11-13T00:21:27.184Z,6.40
2022-11-13T00:24:14.730Z,6.30
2022-11-13T00:27:03.087Z,6.30
2022-11-13T00:29:49.951Z,6.30
2022-11-13T00:32:37.874Z,6.30
2022-11-13T00:35:24.854Z,6.30
2022-11-13T00:38:11.769Z,6.40
2022-11-13T00:41:00.298Z,6.40
2022-11-13T00:43:48.554Z,6.40
2022-11-13T00:46:35.617Z,6.50
2022-11-13T00:49:22.465Z,6.50
2022-11-13T00:52:09.743Z,6.50
2022-11-13T00:54:57.153Z,6.40
2022-11-13T00:57:44.120Z,6.40
2022-11-13T01:00:33.147Z,6.30
2022-11-13T01:03:20.759Z,6.20
2022-11-13T01:06:14.181Z,6.10
2022-11-13T01:09:01.799Z,6.00
2022-11-13T01:11:49.486Z,6.00
2022-11-13T01:14:36.886Z,5.90
2022-11-13T01:17:26.274Z,5.80
2022-11-13T01:20:13.745Z,5.70
2022-11-13T01:23:01.007Z,5.60
2022-11-13T01:25:48.634Z,5.50
2022-11-13T01:28:35.870Z,5.40
2022-11-13T01:31:27.556Z,5.40
2022-11-13T01:34:15.767Z,5.30
2022-11-13T01:37:03.343Z,5.30
2022-11-13T01:39:50.465Z,5.30
2022-11-13T01:42:37.569Z,5.20
2022-11-13T01:46:09.485Z,5.10
2022-11-13T01:49:05.489Z,5.00
2022-11-13T01:51:59.212Z,5.00
2022-11-13T01:54:54.493Z,5.00
2022-11-13T01:57:42.608Z,4.90
2022-11-13T02:00:29.959Z,4.80
2022-11-13T02:03:16.708Z,4.60
2022-11-13T02:06:03.859Z,4.40
2022-11-13T02:08:53.063Z,4.50
2022-11-13T02:11:41.026Z,4.40
2022-11-13T02:14:30.700Z,4.40
2022-11-13T02:17:26.353Z,4.30
2022-11-13T02:20:15.010Z,4.30
2022-11-13T02:23:17.987Z,4.30
2022-11-13T02:26:08.259Z,4.20
2022-11-13T02:28:56.130Z,4.20
2022-11-13T02:31:43.462Z,4.20
2022-11-13T02:34:30.636Z,4.30
2022-11-13T02:37:17.832Z,4.30
2022-11-13T02:40:06.778Z,4.40
2022-11-13T02:42:55.157Z,4.40
2022-11-13T02:45:42.733Z,4.40
2022-11-13T02:48:30.116Z,4.40
2022-11-13T02:51:17.426Z,4.50
2022-11-13T02:54:05.389Z,4.50
2022-11-13T02:56:52.372Z,4.40
2022-11-13T02:59:41.395Z,4.50
2022-11-13T03:02:29.262Z,4.40
2022-11-13T03:05:16.856Z,4.40
2022-11-13T03:08:04.358Z,4.40
2022-11-13T03:10:51.681Z,4.40
2022-11-13T03:13:40.049Z,4.40
2022-11-13T03:16:28.269Z,4.40
2022-11-13T03:19:16.261Z,4.50
2022-11-13T03:22:03.239Z,4.50
2022-11-13T03:24:51.600Z,4.60
2022-11-13T03:27:39.252Z,4.60
2022-11-13T03:30:26.681Z,4.50
2022-11-13T03:33:16.760Z,4.50
2022-11-13T03:36:04.543Z,4.40
2022-11-13T03:38:52.277Z,4.20
2022-11-13T03:41:39.627Z,4.00
2022-11-13T03:44:26.995Z,4.00
2022-11-13T03:47:14.309Z,3.90
2022-11-13T03:50:02.875Z,3.90
2022-11-13T03:52:50.054Z,3.90
2022-11-13T03:55:37.429Z,3.80
2022-11-13T03:58:25.056Z,3.80
2022-11-13T04:01:12.185Z,3.80
2022-11-13T04:03:59.208Z,3.80
2022-11-13T04:06:47.897Z,3.80
2022-11-13T04:09:35.402Z,3.80
2022-11-13T04:12:23.814Z,3.80
2022-11-13T04:15:12.276Z,3.80
2022-11-13T04:17:59.408Z,3.80
2022-11-13T04:20:46.389Z,3.80
2022-11-13T04:23:35.154Z,3.80
2022-11-13T04:26:22.488Z,3.80
2022-11-13T04:29:10.180Z,3.90
2022-11-13T04:31:57.194Z,3.90
2022-11-13T04:34:45.476Z,3.80
2022-11-13T04:37:33.196Z,3.70
2022-11-13T04:40:22.196Z,3.80
2022-11-13T04:43:08.897Z,3.80
2022-11-13T04:45:55.826Z,3.70
2022-11-13T04:48:42.991Z,3.60
2022-11-13T04:51:31.030Z,3.70
2022-11-13T04:54:18.265Z,3.60
2022-11-13T04:57:06.682Z,3.60
2022-11-13T04:59:53.900Z,3.50
2022-11-13T05:02:41.455Z,3.50
2022-11-13T05:05:29.715Z,3.40
2022-11-13T05:08:16.780Z,3.30
2022-11-13T05:11:04.910Z,3.20
2022-11-13T05:13:53.552Z,3.20
2022-11-13T05:16:40.866Z,3.20
2022-11-13T05:19:28.264Z,3.30
2022-11-13T05:22:15.466Z,3.30
2022-11-13T05:25:02.920Z,3.30
2022-11-13T05:27:50.429Z,3.30
2022-11-13T05:30:39.374Z,3.30
2022-11-13T05:33:30.509Z,3.20
2022-11-13T05:36:20.032Z,3.20
2022-11-13T05:39:07.957Z,3.20
2022-11-13T05:41:55.924Z,3.20
2022-11-13T05:44:42.745Z,3.10
2022-11-13T05:47:31.625Z,3.00
2022-11-13T05:50:20.649Z,3.00
2022-11-13T05:53:07.988Z,3.00
2022-11-13T05:55:55.047Z,2.90
2022-11-13T05:58:43.488Z,2.90
2022-11-13T06:01:34.038Z,2.80
2022-11-13T06:04:23.168Z,2.80
2022-11-13T06:07:10.674Z,2.80
2022-11-13T06:09:57.684Z,2.80
2022-11-13T06:12:44.972Z,2.70
2022-11-13T06:15:32.010Z,2.70
2022-11-13T06:18:26.694Z,2.60
2022-11-13T06:21:19.992Z,2.60
2022-11-13T06:24:09.717Z,2.60
2022-11-13T06:26:57.083Z,2.50
2022-11-13T06:29:43.890Z,2.50
2022-11-13T06:32:31.404Z,2.40
2022-11-13T06:35:18.770Z,2.40
2022-11-13T06:38:06.961Z,2.40
2022-11-13T06:40:53.893Z,2.30
2022-11-13T06:43:42.516Z,2.20
2022-11-13T06:46:31.044Z,2.30
2022-11-13T06:49:19.289Z,2.20
2022-11-13T06:52:07.386Z,2.30
2022-11-13T06:54:55.876Z,2.40
2022-11-13T06:57:43.586Z,2.50
2022-11-13T07:00:36.164Z,2.70
2022-11-13T07:03:27.849Z,3.10
2022-11-13T07:06:18.469Z,3.70
2022-11-13T07:09:06.051Z,4.00
2022-11-13T07:11:54.578Z,4.50
2022-11-13T07:14:41.699Z,4.90
2022-11-13T07:17:29.989Z,5.00
2022-11-13T07:20:18.456Z,5.40
2022-11-13T07:23:06.534Z,5.70
2022-11-13T07:25:55.576Z,6.20
2022-11-13T07:28:43.833Z,6.60
2022-11-13T07:31:30.569Z,7.00
2022-11-13T07:34:18.025Z,6.90
2022-11-13T07:37:06.398Z,6.40
2022-11-13T07:39:53.726Z,6.00
2022-11-13T07:42:40.979Z,5.80
2022-11-13T07:45:30.676Z,5.60
2022-11-13T07:48:18.356Z,5.60
2022-11-13T07:51:05.800Z,5.60
2022-11-13T07:53:54.419Z,5.90
2022-11-13T07:56:41.806Z,6.40
2022-11-13T07:59:29.578Z,7.00
2022-11-13T08:02:22.252Z,7.10
2022-11-13T08:05:12.825Z,7.30
2022-11-13T08:08:00.074Z,7.30
2022-11-13T08:10:47.202Z,7.40
2022-11-13T08:13:34.208Z,7.60
2022-11-13T08:16:23.356Z,7.90
2022-11-13T08:19:12.750Z,7.90
2022-11-13T08:22:00.342Z,8.10
2022-11-13T08:24:48.489Z,8.40
2022-11-13T08:27:35.395Z,8.70
2022-11-13T08:30:23.705Z,9.30
2022-11-13T08:33:10.860Z,9.20
2022-11-13T08:36:01.307Z,10.10
2022-11-13T08:38:49.458Z,9.70
2022-11-13T08:41:36.606Z,9.30
2022-11-13T08:44:23.966Z,8.90
2022-11-13T08:47:12.709Z,8.30
2022-11-13T08:49:59.819Z,7.50
2022-11-13T08:52:49.342Z,7.90
2022-11-13T08:55:36.990Z,8.00
2022-11-13T08:58:24.722Z,8.60
2022-11-13T09:01:12.057Z,8.80
2022-11-13T09:03:59.494Z,8.90
2022-11-13T09:06:46.421Z,9.20
2022-11-13T09:09:34.956Z,9.60
2022-11-13T09:12:22.618Z,9.40
2022-11-13T09:15:11.260Z,9.00
2022-11-13T09:18:00.265Z,8.40
2022-11-13T09:20:47.905Z,7.90
2022-11-13T09:23:35.660Z,7.80
2022-11-13T09:26:24.821Z,7.60
2022-11-13T09:29:11.986Z,7.80
2022-11-13T09:31:59.340Z,7.80
2022-11-13T09:34:46.574Z,7.80
2022-11-13T09:37:34.921Z,7.80
2022-11-13T09:40:31.796Z,7.70
2022-11-13T09:43:32.340Z,8.40
2022-11-13T09:46:36.877Z,8.50
2022-11-13T09:49:32.296Z,9.00
2022-11-13T09:52:40.530Z,9.00
2022-11-13T09:55:37.802Z,9.00
2022-11-13T09:58:41.205Z,8.60
2022-11-13T10:01:44.222Z,8.70
2022-11-13T10:04:51.765Z,8.90
2022-11-13T10:07:48.860Z,8.80
2022-11-13T10:10:55.303Z,8.70
2022-11-13T10:13:49.215Z,8.10
2022-11-13T10:16:44.254Z,7.80
2022-11-13T10:19:43.169Z,7.40
2022-11-13T10:22:38.984Z,7.30
2022-11-13T10:25:34.845Z,7.40
2022-11-13T10:31:45.562Z,7.80
2022-11-13T10:34:34.148Z,7.20
2022-11-13T10:37:35.792Z,7.20
2022-11-13T10:40:26.683Z,7.60
2022-11-13T10:43:20.509Z,7.10
2022-11-13T10:46:18.000Z,6.50
2022-11-13T10:49:19.230Z,6.00
2022-11-13T10:52:20.426Z,5.80
2022-11-13T10:55:24.167Z,6.00
2022-11-13T10:58:18.556Z,5.90
2022-11-13T11:01:16.930Z,5.70
2022-11-13T11:04:05.866Z,5.50
2022-11-13T11:07:19.189Z,5.40
2022-11-13T11:10:03.057Z,5.50
2022-11-13T11:12:56.254Z,5.80
2022-11-13T11:15:52.160Z,6.10
2022-11-13T11:18:45.830Z,6.00
2022-11-13T11:21:38.206Z,5.60
2022-11-13T11:24:34.599Z,5.20
2022-11-13T11:27:29.102Z,5.00
2022-11-13T11:30:22.531Z,5.30
2022-11-13T11:33:19.917Z,5.20
2022-11-13T11:36:19.503Z,5.10
2022-11-13T11:39:25.021Z,5.30
2022-11-13T11:42:27.437Z,5.50
2022-11-13T11:45:23.531Z,5.30
2022-11-13T11:48:15.938Z,5.20
2022-11-13T11:51:14.238Z,5.00
2022-11-13T11:54:34.708Z,5.00
2022-11-13T11:57:44.251Z,5.00
2022-11-13T12:00:33.996Z,4.90
2022-11-13T12:03:57.301Z,4.70
2022-11-13T12:07:01.978Z,4.80
2022-11-13T12:10:00.897Z,5.00
2022-11-13T12:13:05.982Z,4.90
2022-11-13T12:16:03.099Z,4.90
2022-11-13T12:19:02.672Z,4.70
2022-11-13T12:22:05.207Z,4.80
2022-11-13T12:25:14.485Z,4.70
2022-11-13T12:28:15.050Z,4.60
2022-11-13T12:31:16.407Z,4.50
2022-11-13T12:34:17.294Z,4.50
2022-11-13T12:37:21.333Z,4.40
2022-11-13T12:40:19.550Z,4.50
2022-11-13T12:43:38.595Z,4.70
2022-11-13T12:46:37.006Z,4.70
2022-11-13T12:49:33.013Z,4.70
2022-11-13T12:52:24.537Z,4.70
2022-11-13T12:55:28.626Z,4.80
2022-11-13T12:58:22.460Z,4.90
2022-11-13T13:01:23.047Z,4.70
2022-11-13T13:04:56.341Z,4.70
2022-11-13T13:08:11.606Z,4.70
2022-11-13T13:11:15.809Z,4.80
2022-11-13T13:14:31.644Z,4.80
2022-11-13T13:17:23.931Z,4.80
2022-11-13T13:20:32.760Z,4.80
2022-11-13T13:23:30.419Z,4.70
2022-11-13T13:26:22.100Z,4.80
2022-11-13T13:29:20.002Z,4.70
2022-11-13T13:32:21.184Z,4.80
2022-11-13T13:35:20.119Z,5.00
2022-11-13T13:38:21.726Z,5.00
2022-11-13T13:41:36.465Z,5.20
2022-11-13T13:45:00.406Z,5.30
2022-11-13T13:47:51.794Z,5.40
2022-11-13T13:50:46.926Z,5.40
2022-11-13T13:53:37.281Z,5.30
2022-11-13T13:56:26.264Z,5.30
2022-11-13T13:59:18.724Z,5.20
2022-11-13T14:02:17.009Z,5.10
2022-11-13T14:05:24.762Z,5.10
2022-11-13T14:08:20.870Z,5.10
2022-11-13T14:11:20.492Z,5.00
2022-11-13T14:14:17.064Z,5.00
2022-11-13T14:17:04.068Z,4.90
2022-11-13T14:19:52.283Z,4.80
2022-11-13T14:22:41.485Z,4.90
2022-11-13T14:25:30.782Z,4.90
2022-11-13T14:28:21.366Z,5.00
2022-11-13T14:31:13.884Z,5.00
2022-11-13T14:34:04.109Z,5.10
2022-11-13T14:36:51.818Z,5.00
2022-11-13T14:39:39.424Z,5.00
2022-11-13T14:42:36.654Z,5.00
2022-11-13T14:45:27.178Z,4.90
2022-11-13T14:48:23.092Z,4.70
2022-11-13T14:51:25.156Z,4.80
2022-11-13T14:54:53.231Z,4.80
2022-11-13T14:57:50.274Z,4.80
2022-11-13T15:00:39.341Z,4.90
2022-11-13T15:03:28.289Z,4.90
2022-11-13T15:06:18.275Z,4.90
2022-11-13T15:09:11.947Z,4.90
2022-11-13T15:11:59.425Z,4.90
2022-11-13T15:14:48.429Z,4.80
2022-11-13T15:17:36.929Z,4.90
2022-11-13T15:20:29.528Z,4.90
2022-11-13T15:23:17.586Z,4.90
2022-11-13T15:26:04.537Z,4.90
2022-11-13T15:28:52.373Z,4.90
2022-11-13T15:31:44.923Z,4.90
2022-11-13T15:34:32.046Z,4.90
2022-11-13T15:37:19.582Z,5.00
2022-11-13T15:40:08.484Z,4.90
2022-11-13T15:42:57.369Z,4.90
2022-11-13T15:45:44.750Z,4.90
2022-11-13T15:48:34.278Z,4.90
2022-11-13T15:51:25.701Z,5.00
2022-11-13T15:54:24.008Z,5.00
2022-11-13T15:57:21.145Z,4.90
2022-11-13T16:00:15.778Z,5.00
2022-11-13T16:03:04.512Z,5.00
2022-11-13T16:05:54.366Z,5.00
2022-11-13T16:08:41.303Z,4.90
2022-11-13T16:11:32.538Z,4.90
2022-11-13T16:14:24.553Z,5.00
2022-11-13T16:17:16.461Z,4.90
2022-11-13T16:20:07.445Z,5.00
2022-11-13T16:22:55.939Z,5.00
2022-11-13T16:25:43.751Z,5.00
2022-11-13T16:28:34.228Z,5.00
2022-11-13T16:31:25.097Z,5.00
2022-11-13T16:34:12.485Z,5.00
2022-11-13T16:36:59.782Z,4.90
2022-11-13T16:39:49.669Z,5.00
2022-11-13T16:42:37.395Z,5.00
2022-11-13T16:45:24.845Z,5.00
2022-11-13T16:48:15.177Z,5.10
2022-11-13T16:51:02.870Z,5.00
2022-11-13T16:53:49.905Z,5.00
2022-11-13T16:56:38.685Z,4.90
2022-11-13T16:59:25.718Z,5.00
2022-11-13T17:02:16.348Z,4.90
2022-11-13T17:05:03.552Z,4.90
2022-11-13T17:07:51.795Z,5.00
2022-11-13T17:10:39.200Z,5.00
2022-11-13T17:13:28.274Z,5.00
2022-11-13T17:16:15.592Z,5.00
2022-11-13T17:19:03.397Z,5.00
2022-11-13T17:21:51.528Z,5.00
2022-11-13T17:24:39.037Z,5.10
2022-11-13T17:27:26.065Z,5.10
2022-11-13T17:30:16.104Z,5.10
2022-11-13T17:33:04.443Z,5.20
2022-11-13T17:35:55.795Z,5.30
2022-11-13T17:38:42.616Z,5.30
2022-11-13T17:41:30.031Z,5.30
2022-11-13T17:44:17.365Z,5.40
2022-11-13T17:47:06.282Z,5.40
2022-11-13T17:49:53.575Z,5.50
2022-11-13T17:52:42.126Z,5.50
2022-11-13T17:55:29.599Z,5.50
2022-11-13T17:58:16.385Z,5.60
2022-11-13T18:01:07.146Z,5.50
2022-11-13T18:03:59.011Z,5.60
2022-11-13T18:06:45.939Z,5.60
2022-11-13T18:09:35.101Z,5.60
2022-11-13T18:12:21.940Z,5.70
2022-11-13T18:15:09.901Z,5.80
2022-11-13T18:17:57.053Z,5.80
2022-11-13T18:20:45.338Z,5.90
2022-11-13T18:23:32.350Z,5.90
2022-11-13T18:26:20.494Z,5.90
2022-11-13T18:29:08.598Z,6.00
2022-11-13T18:31:56.288Z,6.00
2022-11-13T18:34:44.380Z,6.10
2022-11-13T18:37:32.599Z,6.10
2022-11-13T18:40:20.051Z,6.10
2022-11-13T18:43:07.540Z,6.20
2022-11-13T18:45:59.067Z,6.20
2022-11-13T18:48:48.109Z,6.30
2022-11-13T18:51:37.782Z,6.30
2022-11-13T18:54:27.722Z,6.40
2022-11-13T18:57:15.224Z,6.40
2022-11-13T19:00:02.406Z,5.50
2022-11-13T19:02:52.013Z,6.50
2022-11-13T19:05:45.460Z,6.60
2022-11-13T19:08:35.096Z,6.50
2022-11-13T19:11:29.245Z,6.50
2022-11-13T19:14:19.025Z,6.50
2022-11-13T19:17:06.472Z,6.60
2022-11-13T19:19:53.749Z,6.60
2022-11-13T19:22:40.795Z,6.60
2022-11-13T19:25:27.556Z,6.50
2022-11-13T19:28:16.185Z,6.50
2022-11-13T19:31:08.928Z,6.60
2022-11-13T19:33:57.405Z,6.60
2022-11-13T19:36:46.409Z,6.70
2022-11-13T19:39:34.900Z,6.60
2022-11-13T19:42:21.825Z,6.60
2022-11-13T19:45:12.143Z,6.60
2022-11-13T19:47:59.510Z,6.70
2022-11-13T19:50:47.361Z,6.70
2022-11-13T19:53:34.349Z,6.70
2022-11-13T19:56:23.960Z,6.70
2022-11-13T19:59:12.158Z,6.60
2022-11-13T20:02:01.849Z,6.60
2022-11-13T20:04:49.575Z,6.50
2022-11-13T20:07:37.505Z,6.50
2022-11-13T20:10:24.304Z,6.60
2022-11-13T20:13:11.566Z,6.50
2022-11-13T20:15:59.363Z,6.50
2022-11-13T20:18:48.745Z,6.50
2022-11-13T20:21:35.794Z,6.40
2022-11-13T20:24:22.557Z,6.30
2022-11-13T20:27:09.713Z,6.30
2022-11-13T20:29:57.425Z,6.30
2022-11-13T20:32:44.550Z,6.20
2022-11-13T20:35:33.241Z,6.20
2022-11-13T20:38:20.416Z,6.30
2022-11-13T20:41:10.756Z,6.30
2022-11-13T20:44:01.670Z,6.40
2022-11-13T20:46:50.198Z,6.50
2022-11-13T20:49:37.313Z,6.50
2022-11-13T20:52:27.082Z,6.40
2022-11-13T20:55:14.995Z,6.30
2022-11-13T20:58:01.925Z,6.40
2022-11-13T21:00:49.254Z,6.30
2022-11-13T21:03:41.263Z,6.40
2022-11-13T21:06:29.418Z,6.40
2022-11-13T21:09:17.940Z,6.40
2022-11-13T21:12:05.587Z,6.30
2022-11-13T21:14:52.579Z,6.40
2022-11-13T21:17:39.805Z,6.40
2022-11-13T21:20:26.808Z,6.40
2022-11-13T21:23:14.786Z,6.40
2022-11-13T21:26:04.884Z,6.40
2022-11-13T21:28:56.473Z,6.30
2022-11-13T21:31:43.316Z,6.20
2022-11-13T21:34:30.682Z,6.20
2022-11-13T21:37:18.689Z,6.20
2022-11-13T21:40:06.883Z,6.30
2022-11-13T21:42:57.702Z,5.50
2022-11-13T21:45:44.864Z,6.20
2022-11-13T21:48:33.524Z,6.20
2022-11-13T21:51:21.090Z,6.30
2022-11-13T21:54:09.471Z,6.20
2022-11-13T21:56:56.611Z,6.20
2022-11-13T21:59:44.705Z,6.20
2022-11-13T22:02:31.888Z,6.10
2022-11-13T22:05:19.425Z,6.10
2022-11-13T22:08:06.969Z,6.10
2022-11-13T22:10:55.580Z,6.00
2022-11-13T22:13:43.547Z,6.00
2022-11-13T22:16:35.176Z,6.00
2022-11-13T22:19:27.055Z,5.80
2022-11-13T22:22:14.884Z,5.70
2022-11-13T22:25:01.937Z,5.70
2022-11-13T22:27:49.245Z,5.80
2022-11-13T22:30:36.529Z,5.80
2022-11-13T22:33:28.390Z,5.80
2022-11-13T22:36:18.092Z,5.70
2022-11-13T22:39:06.723Z,5.60
2022-11-13T22:41:54.330Z,5.70
2022-11-13T22:44:55.381Z,5.60
2022-11-13T22:47:43.591Z,5.40
2022-11-13T22:50:32.357Z,5.40
2022-11-13T22:53:19.713Z,5.30
2022-11-13T22:56:11.004Z,5.20
2022-11-13T22:59:00.423Z,5.10
2022-11-13T23:01:48.614Z,5.10
2022-11-13T23:04:36.033Z,4.90
2022-11-13T23:07:24.620Z,4.90
2022-11-13T23:10:12.020Z,4.80
2022-11-13T23:12:59.384Z,4.80
2022-11-13T23:15:46.668Z,4.80
2022-11-13T23:18:34.227Z,4.80
2022-11-13T23:21:21.969Z,4.80
2022-11-13T23:24:12.758Z,4.80
2022-11-13T23:27:00.100Z,4.80
2022-11-13T23:29:50.080Z,4.90
2022-11-13T23:32:37.856Z,4.90
2022-11-13T23:35:25.195Z,4.90
2022-11-13T23:38:12.696Z,5.00
2022-11-13T23:41:02.500Z,5.00
2022-11-13T23:46:56.614Z,4.90
2022-11-13T23:49:43.996Z,4.90
2022-11-13T23:52:31.195Z,4.80
2022-11-13T23:55:18.820Z,4.70
2022-11-13T23:58:11.794Z,4.60
